sensor_id;sensor_type;location;lat;lon;timestamp;P1;durP1;ratioP1;P2;durP2;ratioP2
52898;SDS011;38763;53.096;6.062;2022-11-20T00:00:56;34.63;;;17.15;;
52898;SDS011;38763;53.096;6.062;2022-11-20T00:03:22;30.90;;;16.67;;
52898;SDS011;38763;53.096;6.062;2022-11-20T00:05:48;31.65;;;15.50;;
52898;SDS011;38763;53.096;6.062;2022-11-20T00:08:14;29.02;;;15.13;;
52898;SDS011;38763;53.096;6.062;2022-11-20T00:10:39;27.88;;;14.27;;
52898;SDS011;38763;53.096;6.062;2022-11-20T00:13:05;27.63;;;14.02;;
52898;SDS011;38763;53.096;6.062;2022-11-20T00:15:31;27.50;;;13.93;;
52898;SDS011;38763;53.096;6.062;2022-11-20T00:17:57;29.17;;;14.00;;
52898;SDS011;38763;53.096;6.062;2022-11-20T00:20:22;29.48;;;13.80;;
52898;SDS011;38763;53.096;6.062;2022-11-20T00:22:49;27.17;;;13.98;;
52898;SDS011;38763;53.096;6.062;2022-11-20T00:25:15;30.02;;;14.45;;
52898;SDS011;38763;53.096;6.062;2022-11-20T00:27:41;29.73;;;14.38;;
52898;SDS011;38763;53.096;6.062;2022-11-20T00:30:07;26.67;;;13.00;;
52898;SDS011;38763;53.096;6.062;2022-11-20T00:32:33;25.73;;;12.60;;
52898;SDS011;38763;53.096;6.062;2022-11-20T00:34:58;28.83;;;13.50;;
52898;SDS011;38763;53.096;6.062;2022-11-20T00:37:24;26.15;;;13.48;;
52898;SDS011;38763;53.096;6.062;2022-11-20T00:39:49;27.60;;;13.95;;
52898;SDS011;38763;53.096;6.062;2022-11-20T00:42:15;25.58;;;13.45;;
52898;SDS011;38763;53.096;6.062;2022-11-20T00:44:41;26.48;;;13.90;;
52898;SDS011;38763;53.096;6.062;2022-11-20T00:47:06;29.63;;;13.52;;
52898;SDS011;38763;53.096;6.062;2022-11-20T00:49:32;24.08;;;13.30;;
52898;SDS011;38763;53.096;6.062;2022-11-20T00:51:57;24.25;;;12.40;;
52898;SDS011;38763;53.096;6.062;2022-11-20T00:54:23;25.25;;;12.57;;
52898;SDS011;38763;53.096;6.062;2022-11-20T00:56:49;24.95;;;12.75;;
52898;SDS011;38763;53.096;6.062;2022-11-20T00:59:14;27.45;;;14.88;;
52898;SDS011;38763;53.096;6.062;2022-11-20T01:01:40;27.20;;;13.88;;
52898;SDS011;38763;53.096;6.062;2022-11-20T01:04:05;24.88;;;13.18;;
52898;SDS011;38763;53.096;6.062;2022-11-20T01:06:32;25.23;;;12.77;;
52898;SDS011;38763;53.096;6.062;2022-11-20T01:09:01;25.92;;;13.50;;
52898;SDS011;38763;53.096;6.062;2022-11-20T01:11:30;24.77;;;13.00;;
52898;SDS011;38763;53.096;6.062;2022-11-20T01:13:58;28.45;;;14.15;;
52898;SDS011;38763;53.096;6.062;2022-11-20T01:16:25;28.92;;;14.15;;
52898;SDS011;38763;53.096;6.062;2022-11-20T01:18:57;27.13;;;12.98;;
52898;SDS011;38763;53.096;6.062;2022-11-20T01:21:28;27.63;;;13.25;;
52898;SDS011;38763;53.096;6.062;2022-11-20T01:23:56;26.17;;;13.98;;
52898;SDS011;38763;53.096;6.062;2022-11-20T01:26:23;30.08;;;14.48;;
52898;SDS011;38763;53.096;6.062;2022-11-20T01:28:50;27.50;;;13.70;;
52898;SDS011;38763;53.096;6.062;2022-11-20T01:31:20;27.00;;;13.18;;
52898;SDS011;38763;53.096;6.062;2022-11-20T01:33:47;29.20;;;14.45;;
52898;SDS011;38763;53.096;6.062;2022-11-20T01:36:14;28.58;;;13.32;;
52898;SDS011;38763;53.096;6.062;2022-11-20T01:38:41;29.55;;;14.43;;
52898;SDS011;38763;53.096;6.062;2022-11-20T01:41:07;27.73;;;13.63;;
52898;SDS011;38763;53.096;6.062;2022-11-20T01:43:34;26.92;;;13.63;;
52898;SDS011;38763;53.096;6.062;2022-11-20T01:48:30;25.75;;;13.30;;
52898;SDS011;38763;53.096;6.062;2022-11-20T01:51:00;30.30;;;14.63;;
52898;SDS011;38763;53.096;6.062;2022-11-20T01:53:28;25.90;;;13.23;;
52898;SDS011;38763;53.096;6.062;2022-11-20T01:55:59;28.63;;;13.50;;
52898;SDS011;38763;53.096;6.062;2022-11-20T01:58:28;28.92;;;13.68;;
52898;SDS011;38763;53.096;6.062;2022-11-20T02:00:57;27.33;;;13.35;;
52898;SDS011;38763;53.096;6.062;2022-11-20T02:03:23;27.15;;;14.00;;
52898;SDS011;38763;53.096;6.062;2022-11-20T02:05:58;26.13;;;12.93;;
52898;SDS011;38763;53.096;6.062;2022-11-20T02:08:37;31.38;;;14.07;;
52898;SDS011;38763;53.096;6.062;2022-11-20T02:11:03;28.27;;;12.98;;
52898;SDS011;38763;53.096;6.062;2022-11-20T02:13:29;26.40;;;13.52;;
52898;SDS011;38763;53.096;6.062;2022-11-20T02:16:14;24.10;;;12.20;;
52898;SDS011;38763;53.096;6.062;2022-11-20T02:18:43;25.92;;;13.20;;
52898;SDS011;38763;53.096;6.062;2022-11-20T02:21:13;26.23;;;13.18;;
52898;SDS011;38763;53.096;6.062;2022-11-20T02:26:25;26.08;;;13.27;;
52898;SDS011;38763;53.096;6.062;2022-11-20T02:28:52;27.15;;;13.07;;
52898;SDS011;38763;53.096;6.062;2022-11-20T02:31:18;26.98;;;13.60;;
52898;SDS011;38763;53.096;6.062;2022-11-20T02:33:44;24.50;;;13.18;;
52898;SDS011;38763;53.096;6.062;2022-11-20T02:36:10;26.27;;;12.77;;
52898;SDS011;38763;53.096;6.062;2022-11-20T02:38:39;24.52;;;12.60;;
52898;SDS011;38763;53.096;6.062;2022-11-20T02:41:05;26.25;;;13.85;;
52898;SDS011;38763;53.096;6.062;2022-11-20T02:43:30;25.92;;;12.68;;
52898;SDS011;38763;53.096;6.062;2022-11-20T02:45:56;30.13;;;13.88;;
52898;SDS011;38763;53.096;6.062;2022-11-20T02:48:21;30.00;;;13.80;;
52898;SDS011;38763;53.096;6.062;2022-11-20T02:50:47;26.58;;;12.90;;
52898;SDS011;38763;53.096;6.062;2022-11-20T02:53:13;28.52;;;13.38;;
52898;SDS011;38763;53.096;6.062;2022-11-20T02:55:38;26.88;;;13.38;;
52898;SDS011;38763;53.096;6.062;2022-11-20T02:58:04;26.88;;;14.05;;
52898;SDS011;38763;53.096;6.062;2022-11-20T03:00:29;29.60;;;13.70;;
52898;SDS011;38763;53.096;6.062;2022-11-20T03:02:55;28.33;;;13.55;;
52898;SDS011;38763;53.096;6.062;2022-11-20T03:05:22;26.83;;;12.63;;
52898;SDS011;38763;53.096;6.062;2022-11-20T03:07:48;25.60;;;12.65;;
52898;SDS011;38763;53.096;6.062;2022-11-20T03:10:13;29.38;;;13.27;;
52898;SDS011;38763;53.096;6.062;2022-11-20T03:12:39;26.58;;;13.23;;
52898;SDS011;38763;53.096;6.062;2022-11-20T03:15:05;25.15;;;12.30;;
52898;SDS011;38763;53.096;6.062;2022-11-20T03:17:31;23.92;;;12.30;;
52898;SDS011;38763;53.096;6.062;2022-11-20T03:19:56;24.17;;;12.77;;
52898;SDS011;38763;53.096;6.062;2022-11-20T03:22:22;25.85;;;12.85;;
52898;SDS011;38763;53.096;6.062;2022-11-20T03:24:48;26.73;;;12.43;;
52898;SDS011;38763;53.096;6.062;2022-11-20T03:27:13;23.23;;;11.82;;
52898;SDS011;38763;53.096;6.062;2022-11-20T03:29:39;23.98;;;12.10;;
52898;SDS011;38763;53.096;6.062;2022-11-20T03:32:04;25.00;;;12.07;;
52898;SDS011;38763;53.096;6.062;2022-11-20T03:34:30;26.60;;;13.57;;
52898;SDS011;38763;53.096;6.062;2022-11-20T03:36:56;22.23;;;12.07;;
52898;SDS011;38763;53.096;6.062;2022-11-20T03:39:21;23.02;;;11.77;;
52898;SDS011;38763;53.096;6.062;2022-11-20T03:41:47;28.88;;;11.98;;
52898;SDS011;38763;53.096;6.062;2022-11-20T03:44:12;22.88;;;11.75;;
52898;SDS011;38763;53.096;6.062;2022-11-20T03:46:38;24.00;;;11.65;;
52898;SDS011;38763;53.096;6.062;2022-11-20T03:49:04;22.85;;;12.18;;
52898;SDS011;38763;53.096;6.062;2022-11-20T03:51:33;22.35;;;11.82;;
52898;SDS011;38763;53.096;6.062;2022-11-20T03:54:01;21.48;;;10.93;;
52898;SDS011;38763;53.096;6.062;2022-11-20T03:56:29;21.75;;;11.68;;
52898;SDS011;38763;53.096;6.062;2022-11-20T03:58:56;23.33;;;12.00;;
52898;SDS011;38763;53.096;6.062;2022-11-20T04:01:26;22.13;;;10.63;;
52898;SDS011;38763;53.096;6.062;2022-11-20T04:03:54;22.73;;;11.27;;
52898;SDS011;38763;53.096;6.062;2022-11-20T04:06:28;22.48;;;11.32;;
52898;SDS011;38763;53.096;6.062;2022-11-20T04:09:03;23.00;;;11.18;;
52898;SDS011;38763;53.096;6.062;2022-11-20T04:11:33;21.27;;;11.05;;
52898;SDS011;38763;53.096;6.062;2022-11-20T04:14:01;21.80;;;11.18;;
52898;SDS011;38763;53.096;6.062;2022-11-20T04:16:29;23.98;;;11.40;;
52898;SDS011;38763;53.096;6.062;2022-11-20T04:18:56;20.67;;;11.45;;
52898;SDS011;38763;53.096;6.062;2022-11-20T04:21:24;21.80;;;11.02;;
52898;SDS011;38763;53.096;6.062;2022-11-20T04:23:51;23.17;;;11.90;;
52898;SDS011;38763;53.096;6.062;2022-11-20T04:26:20;24.20;;;11.88;;
52898;SDS011;38763;53.096;6.062;2022-11-20T04:28:47;21.65;;;11.68;;
52898;SDS011;38763;53.096;6.062;2022-11-20T04:31:14;23.02;;;11.60;;
52898;SDS011;38763;53.096;6.062;2022-11-20T04:33:42;24.92;;;11.70;;
52898;SDS011;38763;53.096;6.062;2022-11-20T04:38:38;21.85;;;11.48;;
52898;SDS011;38763;53.096;6.062;2022-11-20T04:41:05;22.70;;;11.43;;
52898;SDS011;38763;53.096;6.062;2022-11-20T04:43:34;22.23;;;11.45;;
52898;SDS011;38763;53.096;6.062;2022-11-20T04:46:00;21.20;;;11.48;;
52898;SDS011;38763;53.096;6.062;2022-11-20T04:48:26;21.65;;;11.60;;
52898;SDS011;38763;53.096;6.062;2022-11-20T04:50:53;19.63;;;10.07;;
52898;SDS011;38763;53.096;6.062;2022-11-20T04:53:19;24.05;;;12.48;;
52898;SDS011;38763;53.096;6.062;2022-11-20T04:55:46;22.10;;;11.98;;
52898;SDS011;38763;53.096;6.062;2022-11-20T04:58:12;23.95;;;12.23;;
52898;SDS011;38763;53.096;6.062;2022-11-20T05:00:38;23.48;;;11.73;;
52898;SDS011;38763;53.096;6.062;2022-11-20T05:03:04;21.63;;;12.05;;
52898;SDS011;38763;53.096;6.062;2022-11-20T05:05:29;21.63;;;11.48;;
52898;SDS011;38763;53.096;6.062;2022-11-20T05:07:56;23.42;;;11.60;;
52898;SDS011;38763;53.096;6.062;2022-11-20T05:10:22;22.92;;;11.27;;
52898;SDS011;38763;53.096;6.062;2022-11-20T05:12:49;20.80;;;11.57;;
52898;SDS011;38763;53.096;6.062;2022-11-20T05:15:14;25.02;;;12.57;;
52898;SDS011;38763;53.096;6.062;2022-11-20T05:17:40;24.33;;;12.23;;
52898;SDS011;38763;53.096;6.062;2022-11-20T05:20:06;24.95;;;12.88;;
52898;SDS011;38763;53.096;6.062;2022-11-20T05:22:32;24.67;;;12.30;;
52898;SDS011;38763;53.096;6.062;2022-11-20T05:24:57;22.83;;;11.63;;
52898;SDS011;38763;53.096;6.062;2022-11-20T05:27:23;23.15;;;11.70;;
52898;SDS011;38763;53.096;6.062;2022-11-20T05:29:48;22.23;;;11.55;;
52898;SDS011;38763;53.096;6.062;2022-11-20T05:32:14;23.40;;;11.57;;
52898;SDS011;38763;53.096;6.062;2022-11-20T05:34:40;24.00;;;12.25;;
52898;SDS011;38763;53.096;6.062;2022-11-20T05:37:05;21.98;;;11.93;;
52898;SDS011;38763;53.096;6.062;2022-11-20T05:39:31;23.48;;;11.63;;
52898;SDS011;38763;53.096;6.062;2022-11-20T05:41:56;23.63;;;11.95;;
52898;SDS011;38763;53.096;6.062;2022-11-20T05:44:40;21.48;;;11.68;;
52898;SDS011;38763;53.096;6.062;2022-11-20T05:47:06;24.92;;;12.00;;
52898;SDS011;38763;53.096;6.062;2022-11-20T05:49:32;24.25;;;12.68;;
52898;SDS011;38763;53.096;6.062;2022-11-20T05:51:57;23.40;;;11.90;;
52898;SDS011;38763;53.096;6.062;2022-11-20T05:54:23;21.83;;;11.70;;
52898;SDS011;38763;53.096;6.062;2022-11-20T05:56:49;23.10;;;11.30;;
52898;SDS011;38763;53.096;6.062;2022-11-20T05:59:14;21.63;;;11.23;;
52898;SDS011;38763;53.096;6.062;2022-11-20T06:01:40;21.15;;;11.52;;
52898;SDS011;38763;53.096;6.062;2022-11-20T06:04:06;20.15;;;11.27;;
52898;SDS011;38763;53.096;6.062;2022-11-20T06:06:31;20.95;;;10.60;;
52898;SDS011;38763;53.096;6.062;2022-11-20T06:08:57;21.95;;;11.45;;
52898;SDS011;38763;53.096;6.062;2022-11-20T06:11:24;20.98;;;10.85;;
52898;SDS011;38763;53.096;6.062;2022-11-20T06:13:50;21.15;;;11.10;;
52898;SDS011;38763;53.096;6.062;2022-11-20T06:16:16;21.35;;;11.27;;
52898;SDS011;38763;53.096;6.062;2022-11-20T06:18:44;20.70;;;11.23;;
52898;SDS011;38763;53.096;6.062;2022-11-20T06:21:14;19.48;;;10.02;;
52898;SDS011;38763;53.096;6.062;2022-11-20T06:23:41;19.52;;;10.40;;
52898;SDS011;38763;53.096;6.062;2022-11-20T06:26:08;19.83;;;10.85;;
52898;SDS011;38763;53.096;6.062;2022-11-20T06:28:35;20.15;;;10.25;;
52898;SDS011;38763;53.096;6.062;2022-11-20T06:31:01;19.15;;;10.40;;
52898;SDS011;38763;53.096;6.062;2022-11-20T06:33:28;19.20;;;10.07;;
52898;SDS011;38763;53.096;6.062;2022-11-20T06:35:57;17.52;;;9.52;;
52898;SDS011;38763;53.096;6.062;2022-11-20T06:38:27;18.33;;;10.25;;
52898;SDS011;38763;53.096;6.062;2022-11-20T06:40:53;19.35;;;10.13;;
52898;SDS011;38763;53.096;6.062;2022-11-20T06:43:19;21.65;;;10.60;;
52898;SDS011;38763;53.096;6.062;2022-11-20T06:45:45;18.83;;;9.80;;
52898;SDS011;38763;53.096;6.062;2022-11-20T06:48:11;19.98;;;9.73;;
52898;SDS011;38763;53.096;6.062;2022-11-20T06:50:37;22.17;;;10.45;;
52898;SDS011;38763;53.096;6.062;2022-11-20T06:53:03;20.10;;;10.07;;
52898;SDS011;38763;53.096;6.062;2022-11-20T06:55:29;20.23;;;10.32;;
52898;SDS011;38763;53.096;6.062;2022-11-20T06:57:56;20.35;;;10.40;;
52898;SDS011;38763;53.096;6.062;2022-11-20T07:00:22;19.10;;;10.20;;
52898;SDS011;38763;53.096;6.062;2022-11-20T07:02:47;18.30;;;9.57;;
52898;SDS011;38763;53.096;6.062;2022-11-20T07:05:13;19.95;;;10.52;;
52898;SDS011;38763;53.096;6.062;2022-11-20T07:07:39;19.75;;;10.35;;
52898;SDS011;38763;53.096;6.062;2022-11-20T07:10:04;20.08;;;10.52;;
52898;SDS011;38763;53.096;6.062;2022-11-20T07:12:30;21.05;;;10.70;;
52898;SDS011;38763;53.096;6.062;2022-11-20T07:14:56;19.63;;;11.10;;
52898;SDS011;38763;53.096;6.062;2022-11-20T07:17:22;20.17;;;10.18;;
52898;SDS011;38763;53.096;6.062;2022-11-20T07:19:47;18.60;;;9.77;;
52898;SDS011;38763;53.096;6.062;2022-11-20T07:22:13;20.85;;;11.25;;
52898;SDS011;38763;53.096;6.062;2022-11-20T07:24:38;19.42;;;10.63;;
52898;SDS011;38763;53.096;6.062;2022-11-20T07:27:04;19.80;;;10.50;;
52898;SDS011;38763;53.096;6.062;2022-11-20T07:29:30;20.38;;;10.18;;
52898;SDS011;38763;53.096;6.062;2022-11-20T07:31:55;20.70;;;11.05;;
52898;SDS011;38763;53.096;6.062;2022-11-20T07:34:21;20.73;;;10.13;;
52898;SDS011;38763;53.096;6.062;2022-11-20T07:36:47;21.17;;;11.68;;
52898;SDS011;38763;53.096;6.062;2022-11-20T07:39:13;19.05;;;10.43;;
52898;SDS011;38763;53.096;6.062;2022-11-20T07:41:38;19.80;;;10.52;;
52898;SDS011;38763;53.096;6.062;2022-11-20T07:44:04;21.15;;;11.52;;
52898;SDS011;38763;53.096;6.062;2022-11-20T07:46:30;20.20;;;11.55;;
52898;SDS011;38763;53.096;6.062;2022-11-20T07:48:55;20.40;;;10.35;;
52898;SDS011;38763;53.096;6.062;2022-11-20T07:51:21;20.10;;;9.98;;
52898;SDS011;38763;53.096;6.062;2022-11-20T07:53:47;19.05;;;9.80;;
52898;SDS011;38763;53.096;6.062;2022-11-20T07:56:15;20.00;;;10.20;;
52898;SDS011;38763;53.096;6.062;2022-11-20T07:58:40;20.77;;;10.45;;
52898;SDS011;38763;53.096;6.062;2022-11-20T08:01:06;21.75;;;10.77;;
52898;SDS011;38763;53.096;6.062;2022-11-20T08:03:32;20.33;;;11.18;;
52898;SDS011;38763;53.096;6.062;2022-11-20T08:05:59;20.85;;;10.40;;
52898;SDS011;38763;53.096;6.062;2022-11-20T08:08:27;23.98;;;10.93;;
52898;SDS011;38763;53.096;6.062;2022-11-20T08:10:53;20.88;;;10.75;;
52898;SDS011;38763;53.096;6.062;2022-11-20T08:13:41;20.48;;;10.52;;
52898;SDS011;38763;53.096;6.062;2022-11-20T08:16:25;18.30;;;9.98;;
52898;SDS011;38763;53.096;6.062;2022-11-20T08:18:50;18.63;;;10.20;;
52898;SDS011;38763;53.096;6.062;2022-11-20T08:21:16;20.05;;;10.30;;
52898;SDS011;38763;53.096;6.062;2022-11-20T08:23:41;17.23;;;9.07;;
52898;SDS011;38763;53.096;6.062;2022-11-20T08:26:07;18.02;;;8.90;;
52898;SDS011;38763;53.096;6.062;2022-11-20T08:28:33;18.17;;;9.35;;
52898;SDS011;38763;53.096;6.062;2022-11-20T08:30:59;21.45;;;10.27;;
52898;SDS011;38763;53.096;6.062;2022-11-20T08:33:25;16.95;;;8.25;;
52898;SDS011;38763;53.096;6.062;2022-11-20T08:35:51;17.75;;;9.15;;
52898;SDS011;38763;53.096;6.062;2022-11-20T08:38:16;21.50;;;10.98;;
52898;SDS011;38763;53.096;6.062;2022-11-20T08:40:42;17.98;;;8.52;;
52898;SDS011;38763;53.096;6.062;2022-11-20T08:43:28;29.63;;;12.55;;
52898;SDS011;38763;53.096;6.062;2022-11-20T08:45:55;30.02;;;12.88;;
52898;SDS011;38763;53.096;6.062;2022-11-20T08:48:21;56.15;;;19.85;;
52898;SDS011;38763;53.096;6.062;2022-11-20T08:50:47;17.25;;;8.45;;
52898;SDS011;38763;53.096;6.062;2022-11-20T08:53:13;15.77;;;8.57;;
52898;SDS011;38763;53.096;6.062;2022-11-20T08:55:38;15.15;;;7.72;;
52898;SDS011;38763;53.096;6.062;2022-11-20T08:58:05;18.95;;;8.63;;
52898;SDS011;38763;53.096;6.062;2022-11-20T09:00:32;15.13;;;8.35;;
52898;SDS011;38763;53.096;6.062;2022-11-20T09:02:58;15.75;;;8.27;;
52898;SDS011;38763;53.096;6.062;2022-11-20T09:05:25;14.60;;;7.85;;
52898;SDS011;38763;53.096;6.062;2022-11-20T09:07:51;15.95;;;8.20;;
52898;SDS011;38763;53.096;6.062;2022-11-20T09:10:20;15.00;;;8.07;;
52898;SDS011;38763;53.096;6.062;2022-11-20T09:12:48;18.17;;;8.63;;
52898;SDS011;38763;53.096;6.062;2022-11-20T09:15:14;14.50;;;7.63;;
52898;SDS011;38763;53.096;6.062;2022-11-20T09:17:39;14.88;;;7.57;;
52898;SDS011;38763;53.096;6.062;2022-11-20T09:20:05;15.43;;;8.07;;
52898;SDS011;38763;53.096;6.062;2022-11-20T09:22:31;15.38;;;7.93;;
52898;SDS011;38763;53.096;6.062;2022-11-20T09:24:57;14.65;;;7.95;;
52898;SDS011;38763;53.096;6.062;2022-11-20T09:27:23;14.75;;;7.40;;
52898;SDS011;38763;53.096;6.062;2022-11-20T09:29:48;13.93;;;7.63;;
52898;SDS011;38763;53.096;6.062;2022-11-20T09:32:14;17.40;;;8.48;;
52898;SDS011;38763;53.096;6.062;2022-11-20T09:34:40;16.20;;;7.72;;
52898;SDS011;38763;53.096;6.062;2022-11-20T09:37:05;15.32;;;7.72;;
52898;SDS011;38763;53.096;6.062;2022-11-20T09:39:31;14.48;;;7.57;;
52898;SDS011;38763;53.096;6.062;2022-11-20T09:44:47;13.88;;;7.15;;
52898;SDS011;38763;53.096;6.062;2022-11-20T09:50:06;13.50;;;7.13;;
52898;SDS011;38763;53.096;6.062;2022-11-20T09:52:45;13.68;;;7.40;;
52898;SDS011;38763;53.096;6.062;2022-11-20T09:55:30;15.55;;;7.28;;
52898;SDS011;38763;53.096;6.062;2022-11-20T09:57:56;13.93;;;7.20;;
52898;SDS011;38763;53.096;6.062;2022-11-20T10:00:24;15.18;;;7.50;;
52898;SDS011;38763;53.096;6.062;2022-11-20T10:05:24;15.20;;;7.20;;
52898;SDS011;38763;53.096;6.062;2022-11-20T10:08:06;14.60;;;7.32;;
52898;SDS011;38763;53.096;6.062;2022-11-20T10:11:00;13.98;;;7.97;;
52898;SDS011;38763;53.096;6.062;2022-11-20T10:22:02;12.40;;;6.35;;
52898;SDS011;38763;53.096;6.062;2022-11-20T10:25:08;13.00;;;6.78;;
52898;SDS011;38763;53.096;6.062;2022-11-20T10:30:37;13.73;;;6.75;;
52898;SDS011;38763;53.096;6.062;2022-11-20T10:33:17;14.97;;;8.30;;
52898;SDS011;38763;53.096;6.062;2022-11-20T10:36:03;15.73;;;7.25;;
52898;SDS011;38763;53.096;6.062;2022-11-20T10:38:43;15.23;;;6.65;;
52898;SDS011;38763;53.096;6.062;2022-11-20T10:41:20;13.93;;;6.70;;
52898;SDS011;38763;53.096;6.062;2022-11-20T10:44:11;11.63;;;6.35;;
52898;SDS011;38763;53.096;6.062;2022-11-20T10:47:01;13.20;;;6.65;;
52898;SDS011;38763;53.096;6.062;2022-11-20T10:49:28;12.90;;;6.40;;
52898;SDS011;38763;53.096;6.062;2022-11-20T10:52:04;12.48;;;6.57;;
52898;SDS011;38763;53.096;6.062;2022-11-20T10:59:55;11.95;;;6.55;;
52898;SDS011;38763;53.096;6.062;2022-11-20T11:02:51;13.07;;;6.60;;
52898;SDS011;38763;53.096;6.062;2022-11-20T11:05:25;11.95;;;6.20;;
52898;SDS011;38763;53.096;6.062;2022-11-20T11:07:54;12.75;;;6.72;;
52898;SDS011;38763;53.096;6.062;2022-11-20T11:10:22;11.70;;;6.40;;
52898;SDS011;38763;53.096;6.062;2022-11-20T11:12:53;11.27;;;6.30;;
52898;SDS011;38763;53.096;6.062;2022-11-20T11:15:29;8.85;;;4.72;;
52898;SDS011;38763;53.096;6.062;2022-11-20T11:18:01;9.02;;;5.03;;
52898;SDS011;38763;53.096;6.062;2022-11-20T11:20:27;8.93;;;4.38;;
52898;SDS011;38763;53.096;6.062;2022-11-20T11:22:54;24.45;;;10.25;;
52898;SDS011;38763;53.096;6.062;2022-11-20T11:28:18;30.50;;;11.20;;
52898;SDS011;38763;53.096;6.062;2022-11-20T11:30:47;7.82;;;4.45;;
52898;SDS011;38763;53.096;6.062;2022-11-20T11:33:19;9.23;;;4.78;;
52898;SDS011;38763;53.096;6.062;2022-11-20T11:35:47;10.13;;;5.25;;
52898;SDS011;38763;53.096;6.062;2022-11-20T11:38:19;10.65;;;5.40;;
52898;SDS011;38763;53.096;6.062;2022-11-20T11:40:48;9.77;;;5.30;;
52898;SDS011;38763;53.096;6.062;2022-11-20T11:43:25;8.95;;;4.90;;
52898;SDS011;38763;53.096;6.062;2022-11-20T11:46:21;11.15;;;5.32;;
52898;SDS011;38763;53.096;6.062;2022-11-20T11:49:33;9.55;;;4.47;;
52898;SDS011;38763;53.096;6.062;2022-11-20T11:54:25;8.55;;;4.80;;
52898;SDS011;38763;53.096;6.062;2022-11-20T11:57:01;12.05;;;5.40;;
52898;SDS011;38763;53.096;6.062;2022-11-20T11:59:43;9.63;;;5.18;;
52898;SDS011;38763;53.096;6.062;2022-11-20T12:02:23;10.40;;;5.18;;
52898;SDS011;38763;53.096;6.062;2022-11-20T12:04:53;8.93;;;4.85;;
52898;SDS011;38763;53.096;6.062;2022-11-20T12:15:49;10.68;;;5.25;;
52898;SDS011;38763;53.096;6.062;2022-11-20T12:18:16;12.48;;;6.72;;
52898;SDS011;38763;53.096;6.062;2022-11-20T12:20:51;10.05;;;5.43;;
52898;SDS011;38763;53.096;6.062;2022-11-20T12:43:27;8.52;;;4.43;;
52898;SDS011;38763;53.096;6.062;2022-11-20T12:48:59;9.40;;;4.82;;
52898;SDS011;38763;53.096;6.062;2022-11-20T12:56:52;7.47;;;4.28;;
52898;SDS011;38763;53.096;6.062;2022-11-20T13:07:47;8.55;;;4.63;;
52898;SDS011;38763;53.096;6.062;2022-11-20T13:10:21;7.40;;;4.10;;
52898;SDS011;38763;53.096;6.062;2022-11-20T13:13:34;8.60;;;4.13;;
52898;SDS011;38763;53.096;6.062;2022-11-20T13:16:10;9.68;;;4.18;;
52898;SDS011;38763;53.096;6.062;2022-11-20T13:18:44;9.55;;;4.80;;
52898;SDS011;38763;53.096;6.062;2022-11-20T13:21:17;8.50;;;4.28;;
52898;SDS011;38763;53.096;6.062;2022-11-20T13:23:46;9.18;;;4.82;;
52898;SDS011;38763;53.096;6.062;2022-11-20T13:26:19;10.35;;;4.93;;
52898;SDS011;38763;53.096;6.062;2022-11-20T13:29:09;8.88;;;4.90;;
52898;SDS011;38763;53.096;6.062;2022-11-20T13:31:35;9.68;;;4.75;;
52898;SDS011;38763;53.096;6.062;2022-11-20T13:34:07;8.40;;;5.10;;
52898;SDS011;38763;53.096;6.062;2022-11-20T13:36:37;9.73;;;5.18;;
52898;SDS011;38763;53.096;6.062;2022-11-20T13:39:23;9.13;;;5.18;;
52898;SDS011;38763;53.096;6.062;2022-11-20T13:44:55;8.88;;;4.60;;
52898;SDS011;38763;53.096;6.062;2022-11-20T13:47:27;11.65;;;5.80;;
52898;SDS011;38763;53.096;6.062;2022-11-20T13:49:54;10.63;;;5.18;;
52898;SDS011;38763;53.096;6.062;2022-11-20T14:00:44;10.13;;;5.50;;
52898;SDS011;38763;53.096;6.062;2022-11-20T14:03:18;9.55;;;5.25;;
52898;SDS011;38763;53.096;6.062;2022-11-20T14:05:51;11.18;;;5.40;;
52898;SDS011;38763;53.096;6.062;2022-11-20T14:08:25;9.73;;;5.05;;
52898;SDS011;38763;53.096;6.062;2022-11-20T14:11:13;10.05;;;5.25;;
52898;SDS011;38763;53.096;6.062;2022-11-20T14:13:50;13.35;;;6.78;;
52898;SDS011;38763;53.096;6.062;2022-11-20T14:16:38;11.52;;;5.88;;
52898;SDS011;38763;53.096;6.062;2022-11-20T14:19:23;12.35;;;6.55;;
52898;SDS011;38763;53.096;6.062;2022-11-20T14:21:54;10.15;;;5.13;;
52898;SDS011;38763;53.096;6.062;2022-11-20T14:24:31;11.18;;;5.93;;
52898;SDS011;38763;53.096;6.062;2022-11-20T14:26:57;8.48;;;4.53;;
52898;SDS011;38763;53.096;6.062;2022-11-20T14:29:25;11.60;;;5.70;;
52898;SDS011;38763;53.096;6.062;2022-11-20T14:31:53;14.45;;;6.88;;
52898;SDS011;38763;53.096;6.062;2022-11-20T14:34:22;12.18;;;6.32;;
52898;SDS011;38763;53.096;6.062;2022-11-20T14:36:55;11.43;;;5.85;;
52898;SDS011;38763;53.096;6.062;2022-11-20T14:39:26;11.30;;;4.68;;
52898;SDS011;38763;53.096;6.062;2022-11-20T14:41:54;11.65;;;6.25;;
52898;SDS011;38763;53.096;6.062;2022-11-20T14:44:21;11.30;;;6.07;;
52898;SDS011;38763;53.096;6.062;2022-11-20T14:46:51;11.68;;;5.18;;
52898;SDS011;38763;53.096;6.062;2022-11-20T14:49:18;11.93;;;6.38;;
52898;SDS011;38763;53.096;6.062;2022-11-20T14:51:44;10.38;;;5.85;;
52898;SDS011;38763;53.096;6.062;2022-11-20T14:54:15;9.68;;;4.60;;
52898;SDS011;38763;53.096;6.062;2022-11-20T14:56:56;13.35;;;5.93;;
52898;SDS011;38763;53.096;6.062;2022-11-20T14:59:27;11.75;;;6.13;;
52898;SDS011;38763;53.096;6.062;2022-11-20T15:02:04;10.88;;;4.95;;
52898;SDS011;38763;53.096;6.062;2022-11-20T15:04:34;10.27;;;6.35;;
52898;SDS011;38763;53.096;6.062;2022-11-20T15:07:22;10.85;;;5.82;;
52898;SDS011;38763;53.096;6.062;2022-11-20T15:10:00;11.32;;;5.97;;
52898;SDS011;38763;53.096;6.062;2022-11-20T15:12:34;9.00;;;4.93;;
52898;SDS011;38763;53.096;6.062;2022-11-20T15:15:05;15.07;;;6.07;;
52898;SDS011;38763;53.096;6.062;2022-11-20T15:17:31;11.90;;;6.35;;
52898;SDS011;38763;53.096;6.062;2022-11-20T15:20:00;11.10;;;6.35;;
52898;SDS011;38763;53.096;6.062;2022-11-20T15:22:28;12.07;;;6.05;;
52898;SDS011;38763;53.096;6.062;2022-11-20T15:24:53;11.50;;;5.97;;
52898;SDS011;38763;53.096;6.062;2022-11-20T15:27:19;11.18;;;5.57;;
52898;SDS011;38763;53.096;6.062;2022-11-20T15:29:45;10.93;;;5.85;;
52898;SDS011;38763;53.096;6.062;2022-11-20T15:32:11;11.13;;;5.45;;
52898;SDS011;38763;53.096;6.062;2022-11-20T15:34:36;11.73;;;6.05;;
52898;SDS011;38763;53.096;6.062;2022-11-20T15:37:02;11.48;;;6.43;;
52898;SDS011;38763;53.096;6.062;2022-11-20T15:39:27;13.77;;;7.30;;
52898;SDS011;38763;53.096;6.062;2022-11-20T15:41:53;12.32;;;6.35;;
52898;SDS011;38763;53.096;6.062;2022-11-20T15:44:18;43.08;;;9.63;;
52898;SDS011;38763;53.096;6.062;2022-11-20T15:46:44;22.88;;;6.95;;
52898;SDS011;38763;53.096;6.062;2022-11-20T15:49:14;33.15;;;8.55;;
52898;SDS011;38763;53.096;6.062;2022-11-20T15:51:43;14.95;;;8.10;;
52898;SDS011;38763;53.096;6.062;2022-11-20T15:54:15;47.10;;;10.98;;
52898;SDS011;38763;53.096;6.062;2022-11-20T15:56:44;28.95;;;10.05;;
52898;SDS011;38763;53.096;6.062;2022-11-20T15:59:19;21.98;;;9.50;;
52898;SDS011;38763;53.096;6.062;2022-11-20T16:01:45;17.92;;;8.98;;
52898;SDS011;38763;53.096;6.062;2022-11-20T16:04:11;17.17;;;9.05;;
52898;SDS011;38763;53.096;6.062;2022-11-20T16:06:38;68.63;;;13.10;;
52898;SDS011;38763;53.096;6.062;2022-11-20T16:09:05;38.42;;;10.65;;
52898;SDS011;38763;53.096;6.062;2022-11-20T16:11:31;15.65;;;8.15;;
52898;SDS011;38763;53.096;6.062;2022-11-20T16:13:57;17.55;;;8.05;;